Bangor International Airport


Codes: KBGR/BGR
Name: Bangor International Airport
City: Bangor
Country: United States
Elevation: 192 ft.
Wikipedia:

Photos at Bangor International Airport


   Photos courtesy of SpottingLog. You can add your own sightings and photos by signing up for a free trial today.



No photos found.

Weather at Bangor International Airport


Time (UTC)DescriptionTempratureWindCloud coverageVisibilityPressureHumidity
13-Jun-2024 03:00Light Rain16°C4 mph, SW58%10000m1013hPa92%
13-Jun-2024 06:00Scattered Clouds14°C4 mph, SW38%10000m1014hPa95%
13-Jun-2024 09:00Scattered Clouds12°C2 mph, S47%10000m1013hPa97%
13-Jun-2024 12:00Broken Clouds18°C2 mph, SW57%10000m1014hPa86%
13-Jun-2024 15:00Clear Sky24°C4 mph, SW1%10000m1014hPa47%
13-Jun-2024 18:00Scattered Clouds27°C9 mph, SW36%10000m1012hPa39%
13-Jun-2024 21:00Overcast Clouds23°C11 mph, S85%10000m1012hPa53%
14-Jun-2024 00:00Broken Clouds19°C9 mph, S77%10000m1012hPa68%
14-Jun-2024 03:00Overcast Clouds15°C7 mph, S97%10000m1012hPa86%
14-Jun-2024 06:00Broken Clouds14°C4 mph, S84%10000m1010hPa97%
14-Jun-2024 09:00Overcast Clouds18°C7 mph, S98%10000m1009hPa76%
14-Jun-2024 12:00Overcast Clouds19°C9 mph, S99%10000m1009hPa78%
14-Jun-2024 15:00Light Rain20°C7 mph, SW100%10000m1010hPa88%
14-Jun-2024 18:00Light Rain19°C7 mph, S100%10000m1009hPa93%
14-Jun-2024 21:00Light Rain20°C7 mph, SW100%10000m1009hPa94%
15-Jun-2024 00:00Light Rain18°C7 mph, S100%10000m1010hPa97%
15-Jun-2024 03:00Light Rain17°C4 mph, W100%10000m1011hPa97%
15-Jun-2024 06:00Moderate Rain14°C9 mph, N100%8209m1011hPa98%
15-Jun-2024 09:00Moderate Rain10°C9 mph, N100%10000m1013hPa96%
15-Jun-2024 12:00Light Rain10°C7 mph, N100%10000m1014hPa97%
15-Jun-2024 15:00Overcast Clouds15°C11 mph, N99%10000m1014hPa55%
15-Jun-2024 18:00Overcast Clouds21°C9 mph, N90%10000m1012hPa36%
15-Jun-2024 21:00Few Clouds21°C9 mph, N11%10000m1013hPa36%
16-Jun-2024 00:00Clear Sky15°C7 mph, NW7%10000m1015hPa59%
16-Jun-2024 03:00Clear Sky10°C4 mph, NW1%10000m1018hPa62%
16-Jun-2024 06:00Clear Sky8°C4 mph, NW0%10000m1019hPa69%
16-Jun-2024 09:00Clear Sky7°C2 mph, NW0%10000m1021hPa72%
16-Jun-2024 12:00Clear Sky14°C4 mph, NW0%10000m1023hPa50%
16-Jun-2024 15:00Clear Sky21°C2 mph, NW5%10000m1023hPa33%
16-Jun-2024 18:00Clear Sky24°C2 mph, W3%10000m1021hPa30%
16-Jun-2024 21:00Overcast Clouds21°C7 mph, S100%10000m1021hPa44%
17-Jun-2024 00:00Overcast Clouds15°C7 mph, S100%10000m1022hPa61%
17-Jun-2024 03:00Overcast Clouds11°C4 mph, S100%10000m1023hPa65%
17-Jun-2024 06:00Overcast Clouds11°C4 mph, S100%10000m1023hPa66%
17-Jun-2024 09:00Overcast Clouds12°C4 mph, S100%10000m1022hPa70%
17-Jun-2024 12:00Overcast Clouds15°C7 mph, SW100%10000m1022hPa74%
17-Jun-2024 15:00Light Rain15°C7 mph, S100%10000m1023hPa84%
17-Jun-2024 18:00Overcast Clouds15°C9 mph, S100%10000m1022hPa86%
17-Jun-2024 21:00Overcast Clouds18°C11 mph, S98%10000m1022hPa75%
18-Jun-2024 00:00Overcast Clouds16°C7 mph, S88%10000m1022hPa87%